Time;durP1;ratioP1;P1;durP2;ratioP2;P2;SDS_P1;SDS_P2;PMS_P1;PMS_P2;Temp;Humidity;BMP_temperature;BMP_pressure;BME280_temperature;BME280_humidity;BME280_pressure;Samples;Min_cycle;Max_cycle;Signal;HPM_P1;HPM_P2
2024/02/12 00:01:03;;;;;;;130.35;29.50;;;5.30;99.90;;;3.86;100.00;98990.94;4974826;28;20049;-83
2024/02/12 00:03:34;;;;;;;122.45;30.98;;;;;;;3.88;100.00;98981.31;5010524;23;20057;-82
2024/02/12 00:05:59;;;;;;;135.75;30.17;;;5.30;99.90;;;3.90;100.00;98987.28;5018302;28;20637;-83
2024/02/12 00:08:25;;;;;;;117.90;28.08;;;5.40;99.90;;;3.90;100.00;98979.47;5021592;28;20124;-82
2024/02/12 00:10:54;;;;;;;131.73;29.13;;;5.30;99.90;;;3.89;100.00;98990.81;5035507;28;20026;-82
2024/02/12 00:13:26;;;;;;;106.72;26.70;;;5.30;99.90;;;3.88;100.00;98985.66;5014390;28;20056;-83
2024/02/12 00:15:53;;;;;;;132.88;28.73;;;5.30;99.90;;;3.87;100.00;98987.44;4984870;28;20108;-83
2024/02/12 00:18:23;;;;;;;105.00;27.27;;;5.30;99.90;;;3.88;100.00;98988.28;4997448;28;20049;-83
2024/02/12 00:20:54;;;;;;;121.65;27.17;;;5.30;99.90;;;3.91;100.00;98985.53;4998396;28;20030;-82
2024/02/12 00:23:22;;;;;;;98.72;25.08;;;5.30;99.90;;;3.87;100.00;98978.78;5014243;28;20030;-82
2024/02/12 00:25:48;;;;;;;87.13;24.80;;;5.40;99.90;;;3.89;100.00;98989.97;4996415;28;20038;-82
2024/02/12 00:28:14;;;;;;;86.53;23.38;;;5.30;99.90;;;3.90;100.00;98986.44;5015638;28;20506;-81
2024/02/12 00:30:42;;;;;;;79.80;24.02;;;5.30;99.90;;;3.87;100.00;98991.81;4999182;28;20029;-82
2024/02/12 00:33:09;;;;;;;81.30;21.92;;;5.30;99.90;;;3.84;100.00;98994.53;5013425;28;20040;-83
2024/02/12 00:35:36;;;;;;;75.35;21.15;;;5.30;99.90;;;3.87;100.00;98997.84;4996105;28;20103;-82
2024/02/12 00:38:03;;;;;;;69.25;21.10;;;5.30;99.90;;;3.88;100.00;98996.94;4998182;28;20526;-82
2024/02/12 00:40:30;;;;;;;51.45;17.77;;;5.40;99.90;;;3.90;100.00;98987.28;5001112;28;20025;-82
2024/02/12 00:43:05;;;;;;;57.72;17.55;;;5.30;99.90;;;3.91;100.00;98993.34;4999032;28;20022;-83
2024/02/12 00:45:31;;;;;;;49.72;16.60;;;5.40;99.90;;;3.92;100.00;98999.41;4998333;28;20036;-83
2024/02/12 00:47:56;;;;;;;38.45;15.25;;;5.30;99.90;;;3.92;100.00;98997.63;4981797;28;20072;-83
2024/02/12 00:50:22;;;;;;;42.40;14.63;;;5.40;99.90;;;3.95;100.00;98994.03;5001722;28;20030;-82
2024/02/12 00:52:58;;;;;;;43.60;14.30;;;5.40;99.90;;;3.95;100.00;98996.66;4999704;28;20836;-83
2024/02/12 00:55:24;;;;;;;36.90;13.05;;;5.40;99.90;;;3.95;100.00;98991.44;4998223;28;20025;-82
2024/02/12 00:57:49;;;;;;;37.40;13.25;;;5.40;99.90;;;3.93;100.00;98988.06;5015789;28;20982;-83
2024/02/12 01:00:25;;;;;;;39.05;13.90;;;5.40;99.90;;;3.95;100.00;98991.44;5014133;28;20105;-82
2024/02/12 01:02:50;;;;;;;35.57;13.83;;;5.40;99.90;;;3.94;100.00;98993.19;5017692;28;20064;-82
2024/02/12 01:05:17;;;;;;;37.03;13.73;;;5.40;99.90;;;3.96;100.00;98995.75;5015697;28;20292;-82
2024/02/12 01:07:49;;;;;;;35.95;14.05;;;5.40;99.90;;;3.97;100.00;99000.84;5015617;28;20071;-82
2024/02/12 01:10:16;;;;;;;38.30;14.05;;;5.40;99.90;;;3.98;100.00;98996.53;4997162;28;20381;-83
2024/02/12 01:12:43;;;;;;;38.22;14.70;;;5.40;99.90;;;3.98;100.00;98999.13;4997426;28;20491;-82
2024/02/12 01:15:10;;;;;;;33.50;13.65;;;5.40;99.90;;;3.97;100.00;98993.03;5016707;28;20025;-83
2024/02/12 01:17:43;;;;;;;46.85;15.40;;;5.40;99.90;;;3.97;100.00;99000.84;5014341;28;20036;-81
2024/02/12 01:20:12;;;;;;;38.55;13.70;;;5.40;99.90;;;3.97;100.00;98992.22;4982097;28;20026;-83
2024/02/12 01:22:46;;;;;;;50.05;14.02;;;5.40;99.90;;;3.99;100.00;99001.63;4996339;28;20037;-82
2024/02/12 01:25:12;;;;;;;45.15;14.95;;;5.40;99.90;;;4.00;100.00;98992.09;4982838;28;20049;-83
2024/02/12 01:27:38;;;;;;;43.78;14.73;;;5.40;99.90;;;4.00;100.00;98992.09;4997311;28;20543;-82
2024/02/12 01:30:05;;;;;;;39.33;15.02;;;5.40;99.90;;;4.01;100.00;98999.81;4998857;28;20025;-81
2024/02/12 01:32:40;;;;;;;40.35;15.40;;;5.40;99.90;;;4.02;100.00;98998.91;4979111;28;20161;-82
2024/02/12 01:35:06;;;;;;;53.63;15.98;;;5.40;99.90;;;4.02;100.00;98996.28;5011626;28;20088;-82
2024/02/12 01:37:32;;;;;;;52.22;16.52;;;5.40;99.90;;;4.03;100.00;98997.97;4997042;28;20022;-82
2024/02/12 01:40:08;;;;;;;47.20;15.60;;;5.50;99.90;;;4.04;100.00;98996.19;4979494;28;20486;-82
2024/02/12 01:42:35;;;;;;;;;;;5.40;99.90;;;4.03;100.00;98997.97;4998946;28;20075;-82
2024/02/12 01:45:13;;;;;;;48.67;15.50;;;5.40;99.90;;;4.04;100.00;98998.81;4981293;28;20351;-82
2024/02/12 01:47:49;;;;;;;46.47;15.88;;;5.40;99.90;;;4.04;100.00;98999.69;4995401;28;20025;-83
2024/02/12 01:50:18;;;;;;;51.53;17.15;;;5.50;99.90;;;4.04;100.00;98996.19;5015836;28;20034;-82
2024/02/12 01:52:48;;;;;;;52.65;16.70;;;5.40;99.90;;;4.07;100.00;98990.88;4998067;28;20084;-82
2024/02/12 01:55:20;;;;;;;49.78;16.05;;;5.50;99.90;;;4.05;100.00;99000.50;4996540;28;20037;-82
2024/02/12 01:57:50;;;;;;;51.75;16.33;;;5.50;99.90;;;3.99;100.00;98993.81;4978045;28;20030;-81
2024/02/12 02:00:25;;;;;;;51.72;16.50;;;5.40;99.90;;;4.00;100.00;98994.69;4996403;28;20065;-82
2024/02/12 02:02:51;;;;;;;53.63;16.33;;;5.40;99.90;;;3.99;100.00;98996.41;4979418;28;20047;-82
2024/02/12 02:05:17;;;;;;;55.58;16.63;;;5.40;99.90;;;3.92;100.00;98995.03;4996372;28;20026;-82
2024/02/12 02:07:50;;;;;;;49.55;17.45;;;5.40;99.90;;;3.94;100.00;99002.78;4996822;28;20044;-81
2024/02/12 02:10:16;;;;;;;58.20;16.73;;;5.40;99.90;;;3.93;100.00;99009.75;5011840;28;20036;-82
2024/02/12 02:12:42;;;;;;;49.78;17.85;;;5.40;99.90;;;3.91;100.00;99001.16;4981018;28;20034;-83
2024/02/12 02:15:09;;;;;;;49.05;17.45;;;5.40;99.90;;;3.90;100.00;98997.69;4998953;28;20769;-82
2024/02/12 02:17:41;;;;;;;57.88;17.88;;;5.30;99.90;;;3.92;100.00;99002.00;4978843;28;20492;-81
2024/02/12 02:20:10;;;;;;;46.75;17.10;;;5.40;99.90;;;3.86;100.00;98990.94;5013273;28;20082;-82
2024/02/12 02:22:38;;;;;;;51.63;17.67;;;5.30;99.90;;;3.79;100.00;98991.31;4994403;28;20029;-82
2024/02/12 02:25:13;;;;;;;53.42;17.40;;;5.30;99.90;;;3.79;100.00;98997.38;4980891;28;20041;-82
2024/02/12 02:27:39;;;;;;;64.60;18.98;;;5.30;99.90;;;3.76;100.00;98999.25;4996574;28;20034;-82
2024/02/12 02:30:13;;;;;;;52.45;17.98;;;5.30;99.90;;;3.76;100.00;99002.72;5012711;28;20038;-82
2024/02/12 02:32:42;;;;;;;54.75;17.52;;;5.30;99.90;;;3.77;100.00;99001.78;4993859;28;20038;-82
2024/02/12 02:35:08;;;;;;;53.28;17.00;;;5.20;99.90;;;3.72;100.00;98997.72;4979188;28;20037;-83
2024/02/12 02:37:35;;;;;;;53.90;17.48;;;5.20;99.90;;;3.74;100.00;99001.09;4999244;28;20053;-82
2024/02/12 02:40:08;;;;;;;51.10;17.88;;;5.20;99.90;;;3.74;100.00;98996.75;5012796;28;20026;-83
2024/02/12 02:42:34;;;;;;;49.90;17.42;;;5.20;99.90;;;3.73;100.00;99000.25;4996500;28;20030;-82
2024/02/12 02:45:00;;;;;;;53.22;16.60;;;5.20;99.90;;;3.73;100.00;98995.03;5012520;28;20026;-83
2024/02/12 02:47:35;;;;;;;73.72;17.08;;;5.20;99.90;;;3.75;100.00;99005.38;5012139;28;20040;-82
2024/02/12 02:50:01;;;;;;;47.80;15.70;;;5.20;99.90;;;3.66;100.00;98998.84;4998382;28;20072;-83
2024/02/12 02:52:29;;;;;;;51.03;16.30;;;5.20;99.90;;;3.71;100.00;98996.88;4996323;28;20048;-82
2024/02/12 02:55:05;;;;;;;63.80;17.52;;;5.20;99.90;;;3.73;100.00;98999.41;4995974;28;20042;-82
2024/02/12 02:57:32;;;;;;;62.00;17.60;;;5.20;99.90;;;3.71;100.00;99009.88;4995075;28;20034;-82
2024/02/12 02:59:58;;;;;;;63.13;17.75;;;5.20;99.90;;;3.73;100.00;99004.63;4981929;28;20228;-83
2024/02/12 03:02:30;;;;;;;61.40;17.75;;;5.20;99.90;;;3.72;100.00;99003.78;5013890;28;20467;-81
2024/02/12 03:04:55;;;;;;;57.03;16.80;;;5.20;99.90;;;3.72;100.00;99006.38;4996498;28;20029;-81
2024/02/12 03:07:22;;;;;;;59.22;17.13;;;5.20;99.90;;;3.72;100.00;99002.94;5010554;28;20176;-83
2024/02/12 03:10:02;;;;;;;60.47;18.35;;;5.20;99.90;;;3.69;100.00;98998.69;4993398;28;20044;-82
2024/02/12 03:12:30;;;;;;;61.67;16.23;;;5.20;99.90;;;3.69;100.00;99003.91;5013231;28;20373;-83
2024/02/12 03:15:11;;;;;;;54.03;16.70;;;5.20;99.90;;;3.67;100.00;98997.91;5012495;28;20034;-82
2024/02/12 03:17:42;;;;;;;57.33;16.95;;;5.20;99.90;;;3.68;100.00;99007.44;4994168;28;20038;-82
2024/02/12 03:20:10;;;;;;;59.28;16.40;;;5.20;99.90;;;3.66;100.00;99004.06;4978011;28;20026;-81
2024/02/12 03:23:21;;;;;;;60.72;16.05;;;5.10;99.90;;;3.65;100.00;98998.00;4995231;28;20033;-82
2024/02/12 03:25:27;;;;;;;54.65;15.25;;;;;;;3.64;100.00;99001.50;5002500;28;20512;-83
2024/02/12 03:27:53;;;;;;;54.20;15.68;;;5.10;99.90;;;3.62;100.00;98999.91;5011844;28;20034;-82
2024/02/12 03:30:19;;;;;;;57.75;15.55;;;5.10;99.90;;;3.60;100.00;98994.75;5012443;28;20030;-83
2024/02/12 03:32:45;;;;;;;51.38;15.00;;;5.10;99.90;;;3.58;100.00;99007.00;5014613;28;20502;-82
2024/02/12 03:35:10;;;;;;;64.40;15.73;;;5.10;99.90;;;3.56;100.00;98997.56;4999664;28;20071;-83
2024/02/12 03:37:42;;;;;;;59.55;15.95;;;5.10;99.90;;;3.59;100.00;99007.88;4998232;28;20485;-82
2024/02/12 03:40:12;;;;;;;60.95;15.38;;;5.10;99.90;;;3.59;100.00;99005.25;4998533;28;20109;-82
2024/02/12 03:42:37;;;;;;;56.03;15.07;;;5.10;99.90;;;3.55;100.00;99003.72;4998467;28;20081;-83
2024/02/12 03:45:15;;;;;;;55.90;15.65;;;5.10;99.90;;;3.51;100.00;99004.75;4982274;28;20032;-81
2024/02/12 03:47:41;;;;;;;58.67;16.10;;;5.10;99.90;;;3.51;100.00;99009.97;4998064;28;20598;-82
2024/02/12 04:01:28;;;;;;;58.50;15.05;;;5.00;99.90;;;3.42;100.00;99014.66;5003867;28;20046;-83
2024/02/12 04:03:54;;;;;;;58.13;14.88;;;5.00;99.90;;;3.39;100.00;99020.00;4985423;28;20120;-82
2024/02/12 04:06:20;;;;;;;48.95;14.52;;;5.00;99.90;;;3.40;100.00;99024.28;4994314;28;20037;-82
2024/02/12 04:08:49;;;;;;;67.70;14.80;;;5.00;99.90;;;3.42;100.00;99017.25;4998755;28;20033;-83
2024/02/12 04:11:18;;;;;;;60.38;15.38;;;5.00;99.90;;;3.41;100.00;99019.91;5002062;28;20121;-83
2024/02/12 04:13:46;;;;;;;62.72;14.60;;;5.00;99.90;;;3.38;100.00;99017.47;4999179;28;20099;-82
2024/02/12 04:16:14;;;;;;;54.85;14.18;;;4.90;99.90;;;3.37;100.00;99019.22;5000108;28;20030;-82
2024/02/12 04:18:46;;;;;;;65.88;15.05;;;5.00;99.90;;;3.38;100.00;99020.06;4997226;28;20463;-83
2024/02/12 04:21:16;;;;;;;71.15;15.65;;;4.90;99.90;;;3.36;100.00;99025.34;5016949;28;20522;-83
2024/02/12 04:23:42;;;;;;;58.05;15.98;;;5.00;99.90;;;3.38;100.00;99026.09;4986293;28;20026;-82
2024/02/12 04:26:15;;;;;;;66.07;15.07;;;5.00;99.90;;;3.38;100.00;99023.50;5014926;28;20168;-82
2024/02/12 04:28:44;;;;;;;64.15;14.18;;;5.00;99.90;;;3.33;100.00;99025.47;4980240;28;20084;-83
2024/02/12 04:31:11;;;;;;;57.97;14.88;;;4.90;99.90;;;3.32;100.00;99020.34;4997499;28;20038;-82
2024/02/12 04:33:44;;;;;;;63.28;14.25;;;4.90;99.90;;;3.30;100.00;99023.00;5016182;28;20026;-83
2024/02/12 04:36:10;;;;;;;52.90;14.57;;;4.90;99.90;;;3.30;100.00;99025.59;4982905;28;20045;-82
2024/02/12 04:38:35;;;;;;;58.92;14.13;;;4.90;99.90;;;3.31;100.00;99021.25;4997153;28;20045;-83
2024/02/12 04:41:01;;;;;;;61.08;14.23;;;4.90;99.90;;;3.29;100.00;99023.91;4998584;28;20665;-83
2024/02/12 04:43:47;;;;;;;;;;;;;;;;;;;;;
2024/02/12 04:46:13;;;;;;;52.83;13.15;;;4.90;99.90;;;3.24;100.00;99033.66;4998825;28;20037;-82
2024/02/12 04:48:40;;;;;;;42.83;11.52;;;4.90;99.90;;;3.23;100.00;99032.81;5015723;28;20120;-83
2024/02/12 04:51:06;;;;;;;47.97;12.43;;;4.90;99.90;;;3.22;100.00;99038.13;4998157;28;20112;-82
2024/02/12 04:53:31;;;;;;;42.22;11.65;;;4.90;99.90;;;3.21;100.00;99034.66;4997634;28;20038;-82
2024/02/12 04:55:57;;;;;;;46.08;12.40;;;4.80;99.90;;;3.21;100.00;99039.00;4982364;28;20033;-82
2024/02/12 04:58:33;;;;;;;39.80;11.48;;;4.80;99.90;;;3.21;100.00;99041.63;4999857;28;20049;-81
2024/02/12 05:00:59;;;;;;;43.10;12.55;;;4.80;99.90;;;3.18;100.00;99040.00;4999837;28;20026;-82
2024/02/12 05:03:24;;;;;;;51.42;12.57;;;4.80;99.90;;;3.14;100.00;99043.63;4995631;28;20045;-82
2024/02/12 05:05:59;;;;;;;47.20;13.40;;;4.80;99.90;;;3.16;100.00;99049.63;4997311;28;20045;-82
2024/02/12 05:08:25;;;;;;;53.95;12.90;;;4.80;99.90;;;3.16;100.00;99039.22;5014593;28;20026;-82
2024/02/12 05:10:51;;;;;;;49.35;11.90;;;4.80;99.90;;;3.15;100.00;99052.28;5018055;28;20022;-82
2024/02/12 05:13:17;;;;;;;61.78;14.15;;;4.80;99.90;;;3.16;100.00;99038.38;5011793;28;20492;-82
2024/02/12 05:15:53;;;;;;;66.47;14.18;;;4.80;99.90;;;3.13;100.00;99039.31;4997819;28;20033;-82
2024/02/12 05:24:10;;;;;;;79.20;13.73;;;4.80;99.90;;;3.05;100.00;99042.28;4937835;29;20490;-81
2024/02/12 05:26:38;;;;;;;135.65;16.15;;;4.70;99.90;;;3.05;100.00;99044.88;4935186;29;20036;-81
2024/02/12 05:29:13;;;;;;;119.32;16.23;;;4.70;99.90;;;3.04;100.00;99052.72;4918854;29;20032;-81
2024/02/12 05:31:40;;;;;;;127.72;16.75;;;4.70;99.90;;;3.04;100.00;99048.38;4918283;29;20042;-81
2024/02/12 05:34:06;;;;;;;134.57;16.92;;;4.70;99.90;;;3.01;100.00;99048.50;4920856;29;20043;-80
2024/02/12 05:36:38;;;;;;;118.43;15.93;;;4.70;99.90;;;2.99;100.00;99047.72;4920274;29;20533;-81
2024/02/12 05:39:03;;;;;;;111.75;16.60;;;4.70;99.90;;;3.00;100.00;99046.84;4934398;29;20119;-80
2024/02/12 05:41:32;;;;;;;101.30;16.90;;;4.70;99.90;;;3.02;100.00;99055.41;4917281;29;20044;-81
2024/02/12 05:43:58;;;;;;;183.48;19.92;;;4.70;99.90;;;2.98;100.00;99053.84;4918275;29;20028;-81
2024/02/12 05:46:34;;;;;;;121.82;17.13;;;4.70;99.90;;;2.96;100.00;99050.47;4920867;29;20616;-81
2024/02/12 05:49:00;;;;;;;169.20;18.25;;;4.70;99.90;;;2.95;100.00;99053.97;4934478;29;20031;-81
2024/02/12 05:51:26;;;;;;;158.60;18.45;;;4.60;99.90;;;2.94;100.00;99061.81;4934123;29;20494;-81
2024/02/12 05:53:55;;;;;;;178.55;19.17;;;4.70;99.90;;;2.99;100.00;99062.50;4917982;29;21989;-81
2024/02/12 05:56:21;;;;;;;166.25;19.20;;;4.70;99.90;;;2.95;100.00;99061.78;4919689;29;20031;-81
2024/02/12 05:58:47;;;;;;;157.32;20.67;;;4.70;99.90;;;2.97;100.00;99062.56;4920114;29;20395;-80
2024/02/12 06:01:13;;;;;;;122.20;17.58;;;4.70;99.90;;;2.91;100.00;99072.38;4984905;28;20104;-81
2024/02/12 06:03:39;;;;;;;125.72;17.42;;;4.60;99.90;;;2.92;100.00;99082.72;4996387;28;20048;-81
2024/02/12 06:06:05;;;;;;;150.50;18.77;;;4.70;99.90;;;2.91;100.00;99078.41;4979876;28;20026;-79
2024/02/12 06:08:36;;;;;;;150.90;18.63;;;4.70;99.90;;;2.94;100.00;99080.91;4994244;28;20053;-81
2024/02/12 06:11:02;;;;;;;153.88;19.67;;;4.70;99.90;;;2.94;100.00;99078.28;4995492;28;20026;-81
2024/02/12 06:13:28;;;;;;;153.52;18.88;;;4.70;99.90;;;2.93;100.00;99088.75;4979910;28;20173;-82
2024/02/12 06:15:54;;;;;;;203.07;20.50;;;4.70;99.90;;;2.90;100.00;99092.31;4996649;28;20099;-81
2024/02/12 06:18:20;;;;;;;141.50;20.45;;;4.60;99.90;;;2.88;100.00;99086.34;5011085;28;20038;-81
2024/02/12 06:20:47;;;;;;;219.05;22.17;;;4.60;99.90;;;2.88;100.00;99097.56;5016941;28;20105;-81
2024/02/12 06:23:22;;;;;;;158.23;20.45;;;4.60;99.90;;;2.88;100.00;99099.34;4997368;28;20499;-80
2024/02/12 06:25:48;;;;;;;99.57;17.48;;;4.60;99.90;;;2.84;100.00;99098.59;5011719;28;20029;-81
2024/02/12 06:28:14;;;;;;;94.30;16.20;;;4.60;99.90;;;2.83;100.00;99104.72;4978846;28;20506;-81
2024/02/12 06:30:46;;;;;;;105.70;16.45;;;4.60;99.90;;;2.88;100.00;99105.38;4996001;28;20038;-82
2024/02/12 06:33:11;;;;;;;80.20;16.02;;;4.60;99.90;;;2.87;100.00;99103.69;4981927;28;20026;-81
2024/02/12 06:35:37;;;;;;;76.00;15.18;;;4.60;99.90;;;2.86;100.00;99111.56;4998342;28;20125;-81
2024/02/12 06:38:03;;;;;;;64.90;13.55;;;4.60;99.90;;;2.82;100.00;99109.97;4994207;28;20030;-80
2024/02/12 06:40:30;;;;;;;68.38;13.80;;;4.60;99.90;;;2.83;100.00;99112.53;4997765;28;20473;-82
2024/02/12 06:43:04;;;;;;;57.83;13.10;;;4.60;99.90;;;2.80;100.00;99111.81;4995963;28;20034;-81
2024/02/12 06:45:32;;;;;;;61.90;12.65;;;4.60;99.90;;;2.79;100.00;99118.75;4999239;28;20050;-81
2024/02/12 06:48:05;;;;;;;51.78;13.02;;;4.60;99.90;;;2.81;100.00;99116.09;4998033;28;20104;-82
2024/02/12 06:50:31;;;;;;;43.42;12.00;;;4.60;99.90;;;2.81;100.00;99118.72;4998120;28;20042;-81
2024/02/12 06:52:57;;;;;;;44.22;11.55;;;4.50;99.90;;;2.82;100.00;99133.38;5012867;28;20033;-80
2024/02/12 06:55:22;;;;;;;48.70;12.25;;;4.60;99.90;;;2.86;100.00;99128.00;5014167;28;20022;-81
2024/02/12 06:57:48;;;;;;;32.55;10.05;;;4.60;99.90;;;2.88;100.00;99131.38;4997719;28;20455;-81
2024/02/12 07:00:15;;;;;;;44.67;11.73;;;4.60;99.90;;;2.95;100.00;99142.38;4982053;28;20040;-81
2024/02/12 07:02:46;;;;;;;42.20;11.40;;;4.60;99.90;;;2.94;100.00;99138.09;4996260;28;20121;-81
2024/02/12 07:05:15;;;;;;;37.50;10.98;;;4.60;99.90;;;2.98;100.00;99152.66;4996933;28;20021;-80
2024/02/12 07:07:58;;;;;;;41.83;10.73;;;4.60;99.90;;;2.98;100.00;99152.66;5000609;28;20029;-82
2024/02/12 07:10:32;;;;;;;48.05;11.63;;;4.70;99.90;;;3.02;100.00;99151.63;5002944;28;20014;-80
2024/02/12 07:12:57;;;;;;;40.53;9.02;;;4.70;99.90;;;3.00;100.00;99155.19;5000363;28;20377;-81
2024/02/12 07:15:23;;;;;;;31.50;8.93;;;4.60;99.90;;;2.99;100.00;99158.69;5000122;28;20075;-81
2024/02/12 07:17:49;;;;;;;21.77;7.53;;;4.70;99.90;;;2.96;100.00;99153.59;4983003;28;20038;-81
2024/02/12 07:20:22;;;;;;;26.08;8.85;;;4.70;99.90;;;3.04;100.00;99165.38;4999918;28;20121;-81
2024/02/12 07:22:49;;;;;;;34.38;9.25;;;4.70;99.90;;;3.10;100.00;99168.66;5019753;28;20041;-81
2024/02/12 07:25:15;;;;;;;32.22;9.00;;;4.70;99.90;;;3.06;100.00;99165.34;4998498;28;20109;-80
2024/02/12 07:27:43;;;;;;;28.30;7.63;;;4.70;99.90;;;3.01;100.00;99170.72;4981554;28;20026;-82
2024/02/12 07:30:20;;;;;;;33.40;9.30;;;4.70;99.90;;;3.02;100.00;99164.63;4982649;28;20022;-81
2024/02/12 07:32:46;;;;;;;26.40;8.00;;;4.60;99.90;;;2.93;100.00;99169.34;5001818;28;20038;-80
2024/02/12 07:35:18;;;;;;;31.48;8.57;;;4.70;99.90;;;2.98;100.00;99177.78;4998334;28;20484;-81
2024/02/12 07:37:44;;;;;;;28.75;7.90;;;4.70;99.90;;;3.02;100.00;99172.44;4982423;28;20034;-81
2024/02/12 07:40:13;;;;;;;27.13;9.10;;;4.70;99.90;;;3.10;100.00;99177.31;4992355;28;20034;-82
2024/02/12 07:42:45;;;;;;;25.73;8.23;;;4.70;99.90;;;3.10;100.00;99185.09;4992167;28;20018;-81
2024/02/12 07:45:13;;;;;;;19.48;6.32;;;4.70;99.90;;;3.04;100.00;99182.75;5001682;28;20093;-82
2024/02/12 07:47:43;;;;;;;22.40;7.07;;;4.80;99.90;;;3.11;100.00;99180.75;4999822;28;20393;-82
2024/02/12 07:50:19;;;;;;;24.42;6.97;;;4.70;99.90;;;3.15;100.00;99185.75;4997158;28;20400;-81
2024/02/12 07:52:54;;;;;;;20.77;7.38;;;4.80;99.90;;;3.13;100.00;99192.78;4997456;28;20034;-80
2024/02/12 07:55:20;;;;;;;19.35;6.20;;;4.80;99.90;;;3.08;100.00;99200.78;4999223;28;20176;-81
2024/02/12 07:57:50;;;;;;;14.18;5.28;;;4.70;99.90;;;3.05;100.00;99202.66;4996248;28;20503;-81
2024/02/12 08:00:20;;;;;;;18.88;6.43;;;4.80;99.90;;;3.05;100.00;99200.06;4979852;28;20038;-81
2024/02/12 08:02:46;;;;;;;17.48;6.50;;;4.80;99.90;;;3.06;100.00;99205.19;5000627;28;20030;-81
2024/02/12 08:05:14;;;;;;;19.70;8.02;;;4.80;99.90;;;3.11;100.00;99209.34;4997746;28;20041;-82
2024/02/12 08:07:40;;;;;;;19.95;7.50;;;4.70;99.90;;;3.08;100.00;99210.34;4998331;28;20041;-81
2024/02/12 08:10:14;;;;;;;17.17;7.00;;;4.80;99.90;;;3.18;100.00;99211.66;4981428;28;20032;-81
2024/02/12 08:12:43;;;;;;;20.65;7.63;;;4.80;99.90;;;3.16;100.00;99212.63;4999254;28;20068;-81
2024/02/12 08:15:17;;;;;;;16.60;5.90;;;4.80;99.90;;;3.14;100.00;99214.44;4999459;28;20033;-81
2024/02/12 08:17:42;;;;;;;22.67;6.88;;;4.80;99.90;;;3.21;100.00;99226.28;4979211;28;20038;-81
2024/02/12 08:20:09;;;;;;;14.77;5.13;;;4.80;99.90;;;3.13;100.00;99224.00;4981819;28;20030;-82
2024/02/12 08:22:34;;;;;;;18.70;6.78;;;4.80;99.90;;;3.18;100.00;99229.88;4983239;28;20496;-81
2024/02/12 08:25:02;;;;;;;21.02;6.28;;;4.90;99.90;;;3.33;100.00;99228.41;4983815;28;20121;-81
2024/02/12 08:27:35;;;;;;;20.20;6.57;;;4.90;99.90;;;3.33;100.00;99227.56;4996176;28;20038;-81
2024/02/12 08:30:06;;;;;;;16.70;5.63;;;4.90;99.90;;;3.34;100.00;99242.25;4979831;28;20459;-82
2024/02/12 08:32:41;;;;;;;15.85;5.60;;;5.00;99.90;;;3.38;100.00;99239.47;4984477;28;20025;-82
2024/02/12 08:35:08;;;;;;;14.98;5.38;;;5.00;99.90;;;3.47;100.00;99241.69;5000460;28;20416;-81
2024/02/12 08:37:45;;;;;;;15.32;5.50;;;5.00;99.90;;;3.51;100.00;99249.38;4981219;28;20038;-81
2024/02/12 08:40:12;;;;;;;15.82;5.95;;;5.10;99.90;;;3.59;100.00;99252.50;4980187;28;20065;-82
2024/02/12 08:42:53;;;;;;;15.63;5.95;;;5.10;99.90;;;3.64;100.00;99247.94;4999171;28;20487;-81
2024/02/12 08:45:25;;;;;;;19.10;5.88;;;5.10;99.90;;;3.64;100.00;99250.56;5001731;28;20042;-81
2024/02/12 08:47:53;;;;;;;19.65;6.20;;;5.10;99.90;;;3.66;100.00;99256.53;4988586;28;20668;-82
2024/02/12 08:50:19;;;;;;;15.13;5.68;;;5.20;99.90;;;3.66;100.00;99257.38;4997728;28;20187;-81
2024/02/12 08:52:45;;;;;;;19.83;5.97;;;5.20;99.90;;;3.74;100.00;99267.50;4997814;28;20529;-82
2024/02/12 08:55:17;;;;;;;15.57;5.75;;;5.20;99.90;;;3.74;100.00;99261.41;5004390;28;20040;-82
2024/02/12 08:57:43;;;;;;;15.65;5.65;;;5.20;99.90;;;3.74;100.00;99272.69;5000738;28;20543;-81
2024/02/12 09:00:12;;;;;;;12.30;5.07;;;5.20;99.90;;;3.78;100.00;99279.47;4982298;28;20396;-81
2024/02/12 09:02:51;;;;;;;13.85;5.22;;;5.30;99.90;;;3.76;100.00;99276.09;5014925;28;20037;-81
2024/02/12 09:05:17;;;;;;;12.30;4.63;;;5.30;99.90;;;3.81;100.00;99287.16;4993794;28;20109;-81
2024/02/12 09:07:54;;;;;;;12.52;4.72;;;5.30;99.90;;;3.79;100.00;99281.16;4998786;28;20468;-81
2024/02/12 09:10:22;;;;;;;13.65;5.45;;;;;;;3.83;100.00;99287.94;4979096;28;20044;-81
2024/02/12 09:12:55;;;;;;;14.82;5.28;;;5.30;99.90;;;3.82;100.00;99286.25;4996691;28;20117;-81
2024/02/12 09:15:21;;;;;;;13.45;4.65;;;5.30;99.90;;;3.80;100.00;99298.47;4981040;28;20038;-81
2024/02/12 09:17:50;;;;;;;9.98;4.70;;;5.40;99.90;;;3.84;100.00;99293.97;5013358;28;20444;-81
2024/02/12 09:20:29;;;;;;;13.00;4.30;;;5.40;99.90;;;3.67;100.00;99292.06;5016402;28;20084;-81
2024/02/12 09:22:55;;;;;;;11.13;4.25;;;5.30;99.90;;;3.68;100.00;99289.41;4997250;28;20705;-80
2024/02/12 09:25:24;;;;;;;14.07;5.13;;;5.40;99.90;;;3.80;100.00;99290.69;4980224;28;20070;-82
2024/02/12 09:27:53;;;;;;;16.00;5.65;;;5.40;99.90;;;3.91;100.00;99298.03;4976927;28;20038;-81
2024/02/12 09:30:19;;;;;;;12.73;4.75;;;5.40;99.90;;;3.94;100.00;99299.66;5014809;28;20036;-82
2024/02/12 09:32:46;;;;;;;14.52;5.68;;;5.40;99.90;;;3.92;100.00;99306.69;5021312;28;20041;-81
2024/02/12 09:35:21;;;;;;;16.38;5.43;;;5.40;99.90;;;3.96;100.00;99305.66;4996706;28;20527;-81
2024/02/12 09:37:49;;;;;;;15.65;5.50;;;5.50;99.90;;;3.94;100.00;99310.91;4995736;28;20038;-81
2024/02/12 09:40:22;;;;;;;17.10;4.93;;;5.50;99.90;;;4.01;100.00;99314.09;4994079;28;20064;-81
2024/02/12 09:42:52;;;;;;;15.63;5.47;;;5.50;99.90;;;3.99;100.00;99313.31;5015155;28;20022;-81
2024/02/12 09:45:30;;;;;;;19.33;5.25;;;5.50;99.90;;;4.00;100.00;99313.25;4980214;28;20034;-81
2024/02/12 09:48:09;;;;;;;14.98;5.38;;;5.50;99.90;;;4.01;100.00;99314.09;4994085;28;20048;-80
2024/02/12 09:50:37;;;;;;;15.85;5.03;;;5.50;99.90;;;4.06;100.00;99322.56;4995141;28;20026;-81
2024/02/12 09:53:11;;;;;;;12.45;4.90;;;5.60;99.90;;;4.08;100.00;99324.22;4995583;28;20033;-81
2024/02/12 09:55:41;;;;;;;15.77;5.32;;;5.60;99.90;;;4.08;100.00;99326.81;4996861;28;20061;-81
2024/02/12 09:58:19;;;;;;;12.40;4.85;;;5.60;99.90;;;4.10;100.00;99331.94;4995057;28;20083;-81
2024/02/12 10:00:53;;;;;;;12.68;5.53;;;5.60;99.90;;;4.08;100.00;99333.75;4979831;28;20033;-82
2024/02/12 10:03:21;;;;;;;14.55;5.45;;;5.60;99.90;;;4.09;100.00;99338.09;5013319;28;20038;-82
2024/02/12 10:05:49;;;;;;;14.15;6.07;;;5.60;99.90;;;4.09;100.00;99340.69;4998048;28;20095;-80
2024/02/12 10:08:24;;;;;;;12.52;4.72;;;5.50;99.90;;;3.96;100.00;99344.72;4996346;28;20049;-81
2024/02/12 10:11:17;;;;;;;13.15;6.32;;;5.60;99.90;;;4.08;100.00;99338.97;4991298;28;20085;-82
2024/02/12 10:14:04;;;;;;;11.75;4.80;;;5.60;99.90;;;4.08;100.00;99338.97;4994495;28;20034;-82
2024/02/12 10:16:46;;;;;;;14.68;4.78;;;5.60;99.90;;;4.13;100.00;99342.25;4999065;28;20077;-82
2024/02/12 10:19:24;;;;;;;10.35;4.50;;;5.70;99.90;;;4.23;100.00;99353.13;5012709;28;20030;-82
2024/02/12 10:22:03;;;;;;;;;;;;;;;;;;;;;
2024/02/12 10:24:32;;;;;;;16.08;4.38;;;5.70;99.90;;;4.27;100.00;99352.06;4996531;28;20028;-81
2024/02/12 10:27:51;;;;;;;7.43;3.92;;;5.70;99.90;;;4.29;100.00;99345.88;4997096;28;20176;-81
2024/02/12 10:30:17;;;;;;;7.35;3.03;;;5.80;99.90;;;4.19;100.00;99348.94;4961907;28;20055;-81
2024/02/12 10:32:54;;;;;;;3.38;1.88;;;5.80;99.90;;;4.09;100.00;99344.13;4970869;28;20133;-81
2024/02/12 10:35:23;;;;;;;8.13;2.70;;;5.80;99.90;;;4.24;100.00;99350.44;4969307;28;20126;-82
2024/02/12 10:38:14;;;;;;;6.82;3.05;;;5.80;99.90;;;4.36;100.00;99358.66;4967816;28;20216;-82
2024/02/12 10:41:32;;;;;;;10.77;3.08;;;5.80;99.90;;;4.36;100.00;99364.69;4972317;28;20043;-82
2024/02/12 10:44:10;;;;;;;;;;;5.80;99.90;;;4.05;100.00;99355.59;4971221;28;20062;-82
2024/02/12 10:47:09;;;;;;;6.95;2.25;;;5.80;99.90;;;4.17;100.00;99359.44;4969281;28;19914;-81